• Join FlightAware (Why Join?)
  • Login
  • US Flag 
09:11AM EDT


 

Airport Tracker/Info


-or-


 

Live Flight TrackerFlight Track Log ✈ DAL6139 ✈ 30-Apr-2013 ✈ KLGA - CYUL

Flight Track Log - Related Links

Times and Time Zones

All times are in EDT time to prevent confusion due to time zone crossing. See the DAL6139 flight status page for this flight to view local times or setup timezone preferences in your user account.

Time Position Orientation Groundspeed Altitude Reporting Facility
EDT Latitude Longitude Course Direction KTS MPH feet Rate Location/Type
12:58PM 40.7500 -73.8333 33° Northeast 167 192 1,900  Level New York TRACON
12:59PM 40.7500 -73.7833 90° East 207 238 4,600 2,160 Climbing New York TRACON
01:01PM 41.0093 -73.6740 37° Northeast  Level FlightAware Approximate
01:02PM 41.0921 -73.6128 28° Northeast  Level FlightAware Approximate
01:02PM 40.8844 -73.7139 21° North 237 273 9,600  Level Boston Center
01:03PM 41.1734 -73.5483 33° Northeast  Level FlightAware Approximate
01:03PM 40.9703 -73.6606 25° Northeast 263 303 11,700  Level Boston Center
01:04PM 41.2493 -73.4819 33° Northeast  Level FlightAware Approximate
01:04PM 41.0417 -73.6125 27° Northeast 300 345 13,600  Level Boston Center
01:05PM 41.1342 -73.5481 28° Northeast 335 386 14,600 1,200 Climbing Boston Center
01:06PM 41.2347 -73.4808 27° Northeast 352 405 16,100 1,140 Climbing Boston Center
01:07PM 41.3186 -73.4239 27° Northeast 365 420 16,900 840 Climbing Boston Center
01:08PM 41.4256 -73.3536 26° Northeast 370 426 17,800 1,020 Climbing Boston Center
01:09PM 41.5136 -73.2744 34° Northeast 380 437 19,000 1,200 Climbing Boston Center
01:10PM 41.5811 -73.1811 46° Northeast 386 444 20,300 1,260 Climbing Boston Center
01:11PM 41.6772 -73.1128 28° Northeast 386 444 21,600 1,200 Climbing Boston Center
01:12PM 41.7836 -73.1250 355° North 358 412 22,700 1,020 Climbing Boston Center
01:13PM 41.8917 -73.1400 354° North 369 425 23,700 1,020 Climbing Boston Center
01:14PM 42.0022 -73.1553 354° North 382 440 24,800 1,140 Climbing Boston Center
01:15PM 42.1083 -73.1706 354° North 387 445 26,000 1,020 Climbing Boston Center
01:16PM 42.2186 -73.1831 355° North 387 445 26,900 900 Climbing Boston Center
01:17PM 42.3250 -73.1983 354° North 387 445 27,800 660 Climbing Boston Center
01:18PM 42.4375 -73.2025 358° North 392 451 28,300 480 Climbing Boston Center
01:19PM 42.5500 -73.2122 356° North 397 457 28,800 300 Climbing Boston Center
01:20PM 42.6747 -73.2450 349° North 408 470 29,000 60 Climbing Boston Center
01:21PM 42.7914 -73.2606 354° North 414 476 29,000  Level Boston Center
01:22PM 42.9100 -73.2764 354° North 414 476 29,000  Level Boston Center
01:23PM 43.0244 -73.2922 354° North 419 482 29,000  Level Boston Center
01:24PM 43.1369 -73.3078 354° North 419 482 29,000  Level Boston Center
01:25PM 43.2556 -73.3239 354° North 419 482 29,000  Level Boston Center
01:26PM 43.3681 -73.3369 355° North 414 476 29,000  Level Boston Center
01:27PM 43.4639 -73.3497 354° North 402 463 29,000  Level Boston Center
01:28PM 43.5719 -73.3656 354° North 392 451 29,000  Level Boston Center
01:29PM 43.6886 -73.3819 354° North 387 445 29,000  Level Boston Center
01:30PM 43.7947 -73.3978 354° North 387 445 29,000  Level Boston Center
01:31PM 43.9031 -73.4139 354° North 392 451 29,000  Level Boston Center
01:32PM 44.0133 -73.4272 355° North 392 451 29,000 -60 Level Boston Center
01:33PM 44.1256 -73.4467 353° North 392 451 28,900 -1,020 Descending Boston Center
01:34PM 44.2361 -73.4600 355° North 392 451 27,000 -2,100 Descending Boston Center
01:35PM 44.3464 -73.4736 355° North 392 451 24,700 -2,400 Descending Boston Center
01:36PM 44.4628 -73.4931 353° North 404 465 22,300 -2,280 Descending Boston Center
01:37PM 44.5628 -73.5064 355° North 404 465 20,200 -2,160 Descending Boston Center
01:38PM 44.6853 -73.5261 353° North 404 465 18,000 -2,100 Descending Boston Center
01:39PM 44.7958 -73.5369 356° North 404 465 16,100 -2,040 Descending Boston Center
01:40PM 44.9039 -73.5508 355° North 404 465 14,000 -2,160 Descending Boston Center
01:41PM 45.0081 -73.5586 357° North 383 441 11,800 -1,740 Descending Boston Center
01:42PM 45.0833 -73.5500 North 330 380 10,600 -1,260 Descending Montreal Center
01:43PM 45.1667 -73.5667 352° North 280 322 9,400 -1,200 Descending Montreal Center
01:44PM 45.2500 -73.5667 360° North 270 311 8,200 -720 Descending Montreal Center
01:45PM 45.3167 -73.5833 350° North 270 311 8,000 -540 Descending Montreal Center
01:46PM 45.4000 -73.5500 16° North 280 322 7,200 -900 Descending Montreal Center
01:47PM 45.4667 -73.5333 10° North 260 299 6,200 -1,260 Descending Montreal Center
01:48PM 45.5333 -73.5333 360° North 250 288 4,700 -1,500 Descending Montreal Center
01:49PM 45.5833 -73.5500 347° North 230 265 3,200 -1,500 Descending Montreal Center